Time,TemperatureF,DewpointF,PressureIn,WindDirection,WindDirectionDegrees,WindSpeedMPH,WindSpeedGustMPH,Humidity,HourlyPrecipIn,Conditions,Clouds,dailyrainin,SoftwareType,DateUTC
2013-01-29 00:01:00,32.4,31.6,29.94,WSW,247,6.6,6.6,96,-99.99,,,-99.99,tws,2013-01-29 05:01:00,
2013-01-29 00:03:00,32.5,31.7,29.94,South,180,6.1,6.1,96,-99.99,,,-99.99,tws,2013-01-29 05:03:00,
2013-01-29 00:05:00,32.4,31.6,29.94,SSE,157,7.8,7.8,97,-99.99,,,-99.99,tws,2013-01-29 05:05:00,
2013-01-29 00:08:00,32.4,31.7,29.94,South,180,5.0,5.0,97,-99.99,,,-99.99,tws,2013-01-29 05:08:00,
2013-01-29 00:13:00,32.7,31.9,29.94,SE,135,2.2,2.2,96,-99.99,,,-99.99,tws,2013-01-29 05:13:00,
2013-01-29 00:18:00,32.6,31.8,29.94,South,180,4.0,4.0,96,-99.99,,,-99.99,tws,2013-01-29 05:18:00,
2013-01-29 00:23:00,32.9,32.1,29.94,SSE,157,3.6,3.6,96,-99.99,,,-99.99,tws,2013-01-29 05:23:00,
2013-01-29 00:28:00,32.7,31.9,29.94,South,180,0.9,0.9,96,-99.99,,,-99.99,tws,2013-01-29 05:28:00,
2013-01-29 00:33:00,33.5,32.5,29.95,ESE,112,0.0,0.0,96,-99.99,,,-99.99,tws,2013-01-29 05:33:00,
2013-01-29 00:38:00,33.3,32.3,29.95,SSE,157,0.0,0.0,96,-99.99,,,-99.99,tws,2013-01-29 05:38:00,
2013-01-29 00:43:00,33.4,32.4,29.95,SSE,157,0.0,0.0,96,-99.99,,,-99.99,tws,2013-01-29 05:43:00,
2013-01-29 00:48:00,33.3,32.2,29.94,South,180,1.3,1.3,95,-99.99,,,-99.99,tws,2013-01-29 05:48:00,
2013-01-29 00:53:00,33.5,32.4,29.95,SSE,157,1.0,1.0,95,-99.99,,,-99.99,tws,2013-01-29 05:53:00,
2013-01-29 00:58:00,32.9,32.0,29.95,SSE,157,2.6,2.6,96,-99.99,,,-99.99,tws,2013-01-29 05:58:00,
2013-01-29 01:03:00,33.2,32.2,29.95,SW,225,2.4,2.4,96,-99.99,,,-99.99,tws,2013-01-29 06:03:00,
2013-01-29 01:08:00,33.4,32.3,29.95,South,180,0.0,0.0,95,-99.99,,,-99.99,tws,2013-01-29 06:08:00,
2013-01-29 01:13:00,33.9,32.8,29.95,SW,225,0.0,0.0,95,-99.99,,,-99.99,tws,2013-01-29 06:13:00,
2013-01-29 01:18:00,33.0,31.9,29.96,WSW,247,0.0,0.0,95,-99.99,,,-99.99,tws,2013-01-29 06:18:00,
2013-01-29 01:23:00,33.5,32.5,29.95,South,180,0.0,0.0,96,-99.99,,,-99.99,tws,2013-01-29 06:23:00,
2013-01-29 01:28:00,33.0,32.2,29.96,West,270,0.0,0.0,96,-99.99,,,-99.99,tws,2013-01-29 06:28:00,
2013-01-29 01:33:00,32.8,32.1,29.97,North,360,0.0,0.0,97,-99.99,,,-99.99,tws,2013-01-29 06:33:00,
2013-01-29 01:38:00,32.8,32.0,29.97,NNE,22,0.0,0.0,96,-99.99,,,-99.99,tws,2013-01-29 06:38:00,
2013-01-29 01:43:00,32.8,32.1,29.97,NE,45,0.0,0.0,97,-99.99,,,-99.99,tws,2013-01-29 06:43:00,
2013-01-29 01:48:00,32.8,32.2,29.97,NE,45,0.0,0.0,97,-99.99,,,-99.99,tws,2013-01-29 06:48:00,
2013-01-29 01:53:00,32.8,32.1,29.97,NE,45,0.0,0.0,97,-99.99,,,-99.99,tws,2013-01-29 06:53:00,
2013-01-29 01:58:00,33.3,32.5,29.97,East,90,0.0,0.0,97,-99.99,,,-99.99,tws,2013-01-29 06:58:00,
2013-01-29 02:03:00,33.5,32.7,29.98,East,90,0.0,0.0,96,-99.99,,,-99.99,tws,2013-01-29 07:03:00,
2013-01-29 02:08:00,33.2,32.3,29.97,ESE,112,0.0,0.0,96,-99.99,,,-99.99,tws,2013-01-29 07:08:00,
2013-01-29 02:13:00,33.2,32.4,29.98,SSE,157,0.0,0.0,97,-99.99,,,-99.99,tws,2013-01-29 07:13:00,
2013-01-29 02:18:00,33.3,32.5,29.98,ESE,112,0.0,0.0,96,-99.99,,,-99.99,tws,2013-01-29 07:18:00,
2013-01-29 02:23:00,32.9,32.4,29.98,South,180,0.0,0.0,97,-99.99,,,-99.99,tws,2013-01-29 07:23:00,
2013-01-29 02:28:00,33.2,32.6,29.98,West,270,0.0,0.0,97,-99.99,,,-99.99,tws,2013-01-29 07:28:00,
2013-01-29 02:33:00,32.0,31.6,29.98,West,270,0.0,0.0,98,-99.99,,,-99.99,tws,2013-01-29 07:33:00,
2013-01-29 02:38:00,31.8,31.5,29.98,North,360,0.0,0.0,98,-99.99,,,-99.99,tws,2013-01-29 07:38:00,
2013-01-29 02:43:00,31.9,31.6,29.98,WNW,292,0.0,0.0,98,-99.99,,,-99.99,tws,2013-01-29 07:43:00,
2013-01-29 02:49:00,32.1,31.9,29.98,NW,315,0.0,0.0,99,-99.99,,,-99.99,tws,2013-01-29 07:49:00,
2013-01-29 02:54:00,31.8,31.5,29.98,WSW,247,0.7,0.7,98,-99.99,,,-99.99,tws,2013-01-29 07:54:00,
2013-01-29 02:59:00,31.6,31.3,29.98,West,270,4.2,4.2,99,-99.99,,,-99.99,tws,2013-01-29 07:59:00,
2013-01-29 03:05:00,31.3,30.9,29.98,NNW,337,3.1,3.1,98,-99.99,,,-99.99,tws,2013-01-29 08:05:00,
2013-01-29 03:10:00,31.8,31.7,29.98,North,360,0.0,0.0,99,-99.99,,,-99.99,tws,2013-01-29 08:10:00,
2013-01-29 03:15:00,32.0,31.9,29.98,North,0,0.0,0.0,99,-99.99,,,-99.99,tws,2013-01-29 08:15:00,
2013-01-29 03:20:00,31.5,31.3,29.98,NW,315,2.9,2.9,99,-99.99,,,-99.99,tws,2013-01-29 08:20:00,
2013-01-29 03:25:00,31.6,31.4,29.99,North,360,1.4,1.4,99,-99.99,,,-99.99,tws,2013-01-29 08:25:00,
2013-01-29 03:30:00,32.2,32.1,29.99,NE,45,0.0,0.0,99,-99.99,,,-99.99,tws,2013-01-29 08:30:00,
2013-01-29 03:35:00,32.0,31.9,29.99,NE,45,1.8,1.8,99,-99.99,,,-99.99,tws,2013-01-29 08:35:00,
2013-01-29 03:40:00,31.7,31.5,29.98,NNW,337,0.1,0.1,99,-99.99,,,-99.99,tws,2013-01-29 08:40:00,
2013-01-29 03:45:00,31.8,31.7,29.99,NW,315,0.0,0.0,99,-99.99,,,-99.99,tws,2013-01-29 08:45:00,
2013-01-29 03:50:00,31.3,31.2,30.00,North,0,2.7,2.7,99,-99.99,,,-99.99,tws,2013-01-29 08:50:00,
2013-01-29 03:55:00,31.7,31.5,30.00,NNE,22,0.6,0.6,99,-99.99,,,-99.99,tws,2013-01-29 08:55:00,
2013-01-29 04:00:00,31.2,31.1,30.00,NE,45,4.6,4.6,99,-99.99,,,-99.99,tws,2013-01-29 09:00:00,
2013-01-29 04:05:00,31.1,31.0,30.00,NNE,22,5.5,5.5,99,-99.99,,,-99.99,tws,2013-01-29 09:05:00,
2013-01-29 04:10:00,31.6,31.4,30.00,NE,45,3.4,3.4,99,-99.99,,,-99.99,tws,2013-01-29 09:10:00,
2013-01-29 04:15:00,31.6,31.4,30.00,NNE,22,0.7,0.7,99,-99.99,,,-99.99,tws,2013-01-29 09:15:00,
2013-01-29 04:20:00,31.9,31.7,30.00,North,360,0.0,0.0,99,-99.99,,,-99.99,tws,2013-01-29 09:20:00,
2013-01-29 04:25:00,31.2,31.0,30.00,NNW,337,0.0,0.0,99,-99.99,,,-99.99,tws,2013-01-29 09:25:00,
2013-01-29 04:30:00,31.3,31.1,30.01,North,360,0.3,0.3,99,-99.99,,,-99.99,tws,2013-01-29 09:30:00,
2013-01-29 04:35:00,31.2,31.0,30.01,North,0,0.0,0.0,98,-99.99,,,-99.99,tws,2013-01-29 09:35:00,
2013-01-29 04:40:00,30.7,30.0,30.01,NW,315,4.0,4.0,97,-99.99,,,-99.99,tws,2013-01-29 09:40:00,
2013-01-29 04:45:00,31.2,30.9,30.02,NNE,22,6.7,6.7,98,-99.99,,,-99.99,tws,2013-01-29 09:45:00,
2013-01-29 04:50:00,31.0,30.7,30.02,NNE,22,6.1,6.1,98,-99.99,,,-99.99,tws,2013-01-29 09:50:00,
2013-01-29 04:55:00,31.1,30.8,30.02,North,0,6.5,6.5,98,-99.99,,,-99.99,tws,2013-01-29 09:55:00,
2013-01-29 05:00:00,30.7,30.4,30.02,NE,45,9.4,9.4,99,-99.99,,,-99.99,tws,2013-01-29 10:00:00,
2013-01-29 05:05:00,30.9,30.7,30.03,NNE,22,8.4,8.4,99,-99.99,,,-99.99,tws,2013-01-29 10:05:00,
2013-01-29 05:10:00,30.7,30.4,30.03,NNE,22,11.7,11.7,99,-99.99,,,-99.99,tws,2013-01-29 10:10:00,
2013-01-29 05:15:00,30.8,30.5,30.04,NE,45,9.0,9.0,99,-99.99,,,-99.99,tws,2013-01-29 10:15:00,
2013-01-29 05:20:00,30.8,30.6,30.04,North,0,7.8,7.8,99,-99.99,,,-99.99,tws,2013-01-29 10:20:00,
2013-01-29 05:25:00,30.6,30.4,30.04,NNE,22,9.5,9.5,99,-99.99,,,-99.99,tws,2013-01-29 10:25:00,
2013-01-29 05:30:00,30.6,30.4,30.04,North,0,7.0,7.0,99,-99.99,,,-99.99,tws,2013-01-29 10:30:00,
2013-01-29 05:35:00,30.6,30.4,30.04,NNE,22,9.3,9.3,99,-99.99,,,-99.99,tws,2013-01-29 10:35:00,
2013-01-29 05:40:00,30.6,30.4,30.04,NNE,22,5.4,5.4,99,-99.99,,,-99.99,tws,2013-01-29 10:40:00,
2013-01-29 05:45:00,30.3,30.1,30.04,NE,45,8.3,8.3,99,-99.99,,,-99.99,tws,2013-01-29 10:45:00,
2013-01-29 05:50:00,30.6,30.0,30.05,NE,45,5.1,5.1,97,-99.99,,,-99.99,tws,2013-01-29 10:50:00,
2013-01-29 05:55:00,30.6,30.4,30.05,North,360,0.4,0.4,99,-99.99,,,-99.99,tws,2013-01-29 10:55:00,
2013-01-29 06:00:00,30.5,30.3,30.05,NW,315,3.9,3.9,99,-99.99,,,-99.99,tws,2013-01-29 11:00:00,
2013-01-29 06:06:00,30.6,30.3,30.05,North,360,1.7,1.7,99,-99.99,,,-99.99,tws,2013-01-29 11:06:00,
2013-01-29 06:11:00,30.1,29.8,30.05,North,0,5.2,5.2,98,-99.99,,,-99.99,tws,2013-01-29 11:11:00,
2013-01-29 06:16:00,30.1,29.9,30.05,NE,45,2.2,2.2,99,-99.99,,,-99.99,tws,2013-01-29 11:16:00,
2013-01-29 06:21:00,30.9,30.5,30.05,NNE,22,2.0,2.0,98,-99.99,,,-99.99,tws,2013-01-29 11:21:00,
2013-01-29 06:26:00,30.5,30.0,30.06,NE,45,0.6,0.6,98,-99.99,,,-99.99,tws,2013-01-29 11:26:00,
2013-01-29 06:31:00,30.1,29.7,30.07,NNW,337,1.9,1.9,98,-99.99,,,-99.99,tws,2013-01-29 11:31:00,
2013-01-29 06:36:00,29.9,29.4,30.08,West,270,3.5,3.5,98,-99.99,,,-99.99,tws,2013-01-29 11:36:00,
2013-01-29 06:41:00,29.9,29.6,30.08,NW,315,5.3,5.3,98,-99.99,,,-99.99,tws,2013-01-29 11:41:00,
2013-01-29 06:46:00,29.9,29.6,30.08,WNW,292,3.4,3.4,98,-99.99,,,-99.99,tws,2013-01-29 11:46:00,
2013-01-29 06:51:00,29.9,29.6,30.08,North,0,5.2,5.2,98,-99.99,,,-99.99,tws,2013-01-29 11:51:00,
2013-01-29 06:56:00,30.9,30.6,30.07,North,0,0.0,0.0,98,-99.99,,,-99.99,tws,2013-01-29 11:56:00,
2013-01-29 07:01:00,31.0,30.6,30.07,NNW,337,0.0,0.0,98,-99.99,,,-99.99,tws,2013-01-29 12:01:00,
2013-01-29 07:06:00,30.3,29.9,30.08,NW,315,0.0,0.0,98,-99.99,,,-99.99,tws,2013-01-29 12:06:00,
2013-01-29 07:11:00,30.7,30.2,30.08,North,360,0.0,0.0,98,-99.99,,,-99.99,tws,2013-01-29 12:11:00,
2013-01-29 07:16:00,30.9,30.4,30.09,NE,45,0.0,0.0,98,-99.99,,,-99.99,tws,2013-01-29 12:16:00,
2013-01-29 07:21:00,30.5,29.9,30.09,WNW,292,0.7,0.7,98,-99.99,,,-99.99,tws,2013-01-29 12:21:00,
2013-01-29 07:26:00,30.8,30.2,30.09,North,360,1.4,1.4,97,-99.99,,,-99.99,tws,2013-01-29 12:26:00,
2013-01-29 07:31:00,31.1,30.5,30.10,North,0,3.2,3.2,97,-99.99,,,-99.99,tws,2013-01-29 12:31:00,
2013-01-29 07:36:00,31.1,30.3,30.10,North,360,0.9,0.9,96,-99.99,,,-99.99,tws,2013-01-29 12:36:00,
2013-01-29 07:41:00,30.8,29.7,30.10,ENE,67,2.9,2.9,95,-99.99,,,-99.99,tws,2013-01-29 12:41:00,
2013-01-29 07:46:00,30.6,29.8,30.10,NNE,22,5.5,5.5,97,-99.99,,,-99.99,tws,2013-01-29 12:46:00,
2013-01-29 07:51:00,30.7,29.9,30.10,NNE,22,5.0,5.0,97,-99.99,,,-99.99,tws,2013-01-29 12:51:00,
2013-01-29 07:56:00,30.9,30.2,30.11,NNE,22,5.2,5.2,97,-99.99,,,-99.99,tws,2013-01-29 12:56:00,
2013-01-29 08:01:00,30.6,29.8,30.10,NNE,22,7.2,7.2,97,-99.99,,,-99.99,tws,2013-01-29 13:01:00,
2013-01-29 08:06:00,30.9,30.1,30.09,NE,45,3.3,3.3,96,-99.99,,,-99.99,tws,2013-01-29 13:06:00,
2013-01-29 08:11:00,31.1,30.1,30.09,NE,45,5.5,5.5,95,-99.99,,,-99.99,tws,2013-01-29 13:11:00,
2013-01-29 08:16:00,30.3,29.4,30.09,NNE,22,8.0,8.0,96,-99.99,,,-99.99,tws,2013-01-29 13:16:00,
2013-01-29 08:21:00,30.7,29.6,30.09,NNE,22,3.2,3.2,95,-99.99,,,-99.99,tws,2013-01-29 13:21:00,
2013-01-29 08:26:00,30.9,29.8,30.09,NNE,22,4.8,4.8,95,-99.99,,,-99.99,tws,2013-01-29 13:26:00,
2013-01-29 08:31:00,31.2,29.9,30.10,NNE,22,5.3,5.3,94,-99.99,,,-99.99,tws,2013-01-29 13:31:00,
2013-01-29 08:36:00,31.5,29.5,30.11,NNE,22,5.6,5.6,92,-99.99,,,-99.99,tws,2013-01-29 13:36:00,
2013-01-29 08:41:00,32.4,30.4,30.10,North,0,4.1,4.1,92,-99.99,,,-99.99,tws,2013-01-29 13:41:00,
2013-01-29 08:46:00,31.6,30.0,30.11,NE,45,0.0,0.0,93,-99.99,,,-99.99,tws,2013-01-29 13:46:00,
2013-01-29 08:51:00,31.9,30.0,30.11,North,360,1.3,1.3,92,-99.99,,,-99.99,tws,2013-01-29 13:51:00,
2013-01-29 08:56:00,32.4,30.2,30.11,NNE,22,5.1,5.1,91,-99.99,,,-99.99,tws,2013-01-29 13:56:00,
2013-01-29 09:01:00,32.8,30.7,30.11,ENE,67,2.1,2.1,91,-99.99,,,-99.99,tws,2013-01-29 14:01:00,
2013-01-29 09:07:00,32.2,30.0,30.11,ENE,67,3.1,3.1,91,-99.99,,,-99.99,tws,2013-01-29 14:07:00,
2013-01-29 09:12:00,32.9,30.5,30.12,NNE,22,0.2,0.2,90,-99.99,,,-99.99,tws,2013-01-29 14:12:00,
2013-01-29 09:17:00,32.6,30.3,30.11,NE,45,2.6,2.6,91,-99.99,,,-99.99,tws,2013-01-29 14:17:00,
2013-01-29 09:22:00,32.7,30.4,30.11,East,90,0.0,0.0,91,-99.99,,,-99.99,tws,2013-01-29 14:22:00,
2013-01-29 09:27:00,32.9,30.6,30.12,NE,45,3.9,3.9,90,-99.99,,,-99.99,tws,2013-01-29 14:27:00,
2013-01-29 09:32:00,32.2,30.0,30.12,ENE,67,7.4,7.4,91,-99.99,,,-99.99,tws,2013-01-29 14:32:00,
2013-01-29 09:37:00,32.6,30.2,30.12,ENE,67,4.9,4.9,90,-99.99,,,-99.99,tws,2013-01-29 14:37:00,
2013-01-29 09:42:00,32.8,30.4,30.12,NNE,22,5.2,5.2,90,-99.99,,,-99.99,tws,2013-01-29 14:42:00,
2013-01-29 09:47:00,33.2,30.3,30.12,NNE,22,3.1,3.1,89,-99.99,,,-99.99,tws,2013-01-29 14:47:00,
2013-01-29 09:52:00,33.8,30.6,30.12,NE,45,6.0,6.0,88,-99.99,,,-99.99,tws,2013-01-29 14:52:00,
2013-01-29 09:57:00,33.3,30.5,30.11,NE,45,4.8,4.8,89,-99.99,,,-99.99,tws,2013-01-29 14:57:00,
2013-01-29 10:02:00,34.6,31.2,30.11,ENE,67,2.5,2.5,87,-99.99,,,-99.99,tws,2013-01-29 15:02:00,
2013-01-29 10:07:00,34.4,30.9,30.12,North,360,4.9,4.9,87,-99.99,,,-99.99,tws,2013-01-29 15:07:00,
2013-01-29 10:12:00,34.7,31.2,30.12,East,90,1.4,1.4,86,-99.99,,,-99.99,tws,2013-01-29 15:12:00,
2013-01-29 10:17:00,36.1,31.8,30.12,NE,45,0.0,0.0,84,-99.99,,,-99.99,tws,2013-01-29 15:17:00,
2013-01-29 10:22:00,35.7,31.3,30.13,NNE,22,3.3,3.3,83,-99.99,,,-99.99,tws,2013-01-29 15:22:00,
2013-01-29 10:27:00,35.0,31.1,30.14,NNE,22,0.8,0.8,85,-99.99,,,-99.99,tws,2013-01-29 15:27:00,
2013-01-29 10:32:00,34.5,30.8,30.14,NNE,22,3.9,3.9,86,-99.99,,,-99.99,tws,2013-01-29 15:32:00,
2013-01-29 10:37:00,35.3,31.1,30.13,North,360,1.5,1.5,84,-99.99,,,-99.99,tws,2013-01-29 15:37:00,
2013-01-29 10:42:00,35.4,31.2,30.13,NNE,22,3.2,3.2,84,-99.99,,,-99.99,tws,2013-01-29 15:42:00,
2013-01-29 10:47:00,35.4,31.2,30.14,NE,45,1.0,1.0,84,-99.99,,,-99.99,tws,2013-01-29 15:47:00,
2013-01-29 10:52:00,36.5,31.7,30.14,North,360,0.0,0.0,82,-99.99,,,-99.99,tws,2013-01-29 15:52:00,
2013-01-29 10:57:00,36.1,31.3,30.13,East,90,0.1,0.1,82,-99.99,,,-99.99,tws,2013-01-29 15:57:00,
2013-01-29 11:02:00,35.1,30.7,30.14,NNE,22,4.9,4.9,84,-99.99,,,-99.99,tws,2013-01-29 16:02:00,
2013-01-29 11:07:00,37.0,31.8,30.13,NNW,337,0.0,0.0,81,-99.99,,,-99.99,tws,2013-01-29 16:07:00,
2013-01-29 11:12:00,38.3,32.7,30.12,East,90,0.7,0.7,79,-99.99,,,-99.99,tws,2013-01-29 16:12:00,
2013-01-29 11:18:00,39.1,33.2,30.11,ESE,112,6.1,6.1,79,-99.99,,,-99.99,tws,2013-01-29 16:18:00,
2013-01-29 11:23:00,38.2,32.1,30.11,NNE,22,1.6,1.6,78,-99.99,,,-99.99,tws,2013-01-29 16:23:00,
2013-01-29 11:28:00,38.1,32.6,30.11,NNE,22,1.1,1.1,80,-99.99,,,-99.99,tws,2013-01-29 16:28:00,
2013-01-29 11:33:00,38.4,32.8,30.11,NE,45,0.1,0.1,79,-99.99,,,-99.99,tws,2013-01-29 16:33:00,
2013-01-29 11:38:00,38.3,32.7,30.11,NNE,22,0.8,0.8,80,-99.99,,,-99.99,tws,2013-01-29 16:38:00,
2013-01-29 11:43:00,39.6,33.5,30.10,NNE,22,1.4,1.4,78,-99.99,,,-99.99,tws,2013-01-29 16:43:00,
2013-01-29 11:48:00,38.2,32.9,30.11,North,360,0.3,0.3,81,-99.99,,,-99.99,tws,2013-01-29 16:48:00,
2013-01-29 11:53:00,43.2,36.5,30.10,NE,45,0.0,0.0,77,-99.99,,,-99.99,tws,2013-01-29 16:53:00,
2013-01-29 11:58:00,42.7,35.3,30.09,East,90,2.3,2.3,74,-99.99,,,-99.99,tws,2013-01-29 16:58:00,
2013-01-29 12:03:00,41.6,34.8,30.09,ENE,67,1.8,1.8,76,-99.99,,,-99.99,tws,2013-01-29 17:03:00,
2013-01-29 12:08:00,44.6,37.2,30.09,East,90,0.1,0.1,75,-99.99,,,-99.99,tws,2013-01-29 17:08:00,
2013-01-29 12:13:00,42.7,35.5,30.09,WNW,292,0.1,0.1,75,-99.99,,,-99.99,tws,2013-01-29 17:13:00,
2013-01-29 12:18:00,41.8,34.8,30.09,WNW,292,2.5,2.5,76,-99.99,,,-99.99,tws,2013-01-29 17:18:00,
2013-01-29 12:23:00,42.0,35.2,30.09,WNW,292,0.0,0.0,76,-99.99,,,-99.99,tws,2013-01-29 17:23:00,
2013-01-29 12:28:00,40.5,34.5,30.09,NNW,337,3.2,3.2,79,-99.99,,,-99.99,tws,2013-01-29 17:28:00,
2013-01-29 12:33:00,44.0,36.5,30.09,ENE,67,0.0,0.0,74,-99.99,,,-99.99,tws,2013-01-29 17:33:00,
2013-01-29 12:38:00,44.3,36.6,30.09,North,0,0.1,0.1,74,-99.99,,,-99.99,tws,2013-01-29 17:38:00,
2013-01-29 12:43:00,44.1,36.2,30.09,WNW,292,1.1,1.1,73,-99.99,,,-99.99,tws,2013-01-29 17:43:00,
2013-01-29 12:48:00,41.8,35.5,30.09,WNW,292,3.6,3.6,78,-99.99,,,-99.99,tws,2013-01-29 17:48:00,
2013-01-29 12:53:00,42.6,36.1,30.08,NNW,337,0.4,0.4,77,-99.99,,,-99.99,tws,2013-01-29 17:53:00,
2013-01-29 12:58:00,44.4,37.4,30.07,WNW,292,2.4,2.4,76,-99.99,,,-99.99,tws,2013-01-29 17:58:00,
2013-01-29 13:03:00,47.0,38.7,30.07,NE,45,3.4,3.4,72,-99.99,,,-99.99,tws,2013-01-29 18:03:00,
2013-01-29 13:08:00,51.4,40.7,30.07,South,180,1.9,1.9,66,-99.99,,,-99.99,tws,2013-01-29 18:08:00,
2013-01-29 13:13:00,49.5,39.7,30.07,ESE,112,6.2,6.2,68,-99.99,,,-99.99,tws,2013-01-29 18:13:00,
2013-01-29 13:18:00,48.3,39.0,30.07,SSE,157,4.5,4.5,69,-99.99,,,-99.99,tws,2013-01-29 18:18:00,
2013-01-29 13:23:00,47.4,38.9,30.07,ESE,112,6.1,6.1,71,-99.99,,,-99.99,tws,2013-01-29 18:23:00,
2013-01-29 13:28:00,45.5,37.2,30.07,SSE,157,2.9,2.9,72,-99.99,,,-99.99,tws,2013-01-29 18:28:00,
2013-01-29 13:33:00,44.8,37.4,30.07,East,90,0.0,0.0,74,-99.99,,,-99.99,tws,2013-01-29 18:33:00,
2013-01-29 13:38:00,46.2,38.2,30.07,South,180,0.0,0.0,73,-99.99,,,-99.99,tws,2013-01-29 18:38:00,
2013-01-29 13:43:00,44.5,36.7,30.06,WSW,247,1.8,1.8,73,-99.99,,,-99.99,tws,2013-01-29 18:43:00,
2013-01-29 13:48:00,44.0,36.7,30.05,SW,225,0.8,0.8,75,-99.99,,,-99.99,tws,2013-01-29 18:48:00,
2013-01-29 13:53:00,41.1,35.1,30.06,West,270,9.8,9.8,78,-99.99,,,-99.99,tws,2013-01-29 18:53:00,
2013-01-29 13:58:00,40.8,34.4,30.06,WSW,247,8.4,8.4,77,-99.99,,,-99.99,tws,2013-01-29 18:58:00,
2013-01-29 14:03:00,41.2,35.4,30.05,WNW,292,2.1,2.1,79,-99.99,,,-99.99,tws,2013-01-29 19:03:00,
2013-01-29 14:08:00,41.1,35.4,30.05,NNW,337,3.8,3.8,79,-99.99,,,-99.99,tws,2013-01-29 19:08:00,
2013-01-29 14:13:00,40.5,34.8,30.05,West,270,3.6,3.6,80,-99.99,,,-99.99,tws,2013-01-29 19:13:00,
2013-01-29 14:18:00,40.5,34.8,30.05,WNW,292,5.9,5.9,80,-99.99,,,-99.99,tws,2013-01-29 19:18:00,
2013-01-29 14:23:00,40.2,34.8,30.07,WNW,292,6.2,6.2,80,-99.99,,,-99.99,tws,2013-01-29 19:23:00,
2013-01-29 14:28:00,40.0,34.9,30.07,West,270,6.3,6.3,81,-99.99,,,-99.99,tws,2013-01-29 19:28:00,
2013-01-29 14:33:00,39.5,34.4,30.07,WNW,292,9.0,9.0,82,-99.99,,,-99.99,tws,2013-01-29 19:33:00,
2013-01-29 14:38:00,39.6,34.6,30.07,NW,315,5.7,5.7,82,-99.99,,,-99.99,tws,2013-01-29 19:38:00,
2013-01-29 14:43:00,40.7,35.4,30.07,North,0,2.2,2.2,81,-99.99,,,-99.99,tws,2013-01-29 19:43:00,
2013-01-29 14:48:00,40.3,35.1,30.06,NNW,337,0.4,0.4,81,-99.99,,,-99.99,tws,2013-01-29 19:48:00,
2013-01-29 14:53:00,40.7,35.0,30.07,NNW,337,0.5,0.5,79,-99.99,,,-99.99,tws,2013-01-29 19:53:00,
2013-01-29 14:58:00,40.3,35.1,30.07,NW,315,0.0,0.0,81,-99.99,,,-99.99,tws,2013-01-29 19:58:00,
2013-01-29 15:00:00,40.6,35.0,30.06,NW,315,0.0,0.0,80,-99.99,,,-99.99,tws,2013-01-29 20:00:00,
2013-01-29 15:05:00,41.7,35.8,30.05,North,0,0.0,0.0,79,-99.99,,,-99.99,tws,2013-01-29 20:05:00,
2013-01-29 15:10:00,40.3,34.8,30.06,West,270,0.0,0.0,80,-99.99,,,-99.99,tws,2013-01-29 20:10:00,
2013-01-29 15:15:00,41.4,35.6,30.06,West,270,0.0,0.0,79,-99.99,,,-99.99,tws,2013-01-29 20:15:00,
2013-01-29 15:20:00,40.5,35.2,30.07,North,360,2.3,2.3,81,-99.99,,,-99.99,tws,2013-01-29 20:20:00,
2013-01-29 15:25:00,39.9,34.8,30.07,NNW,337,6.0,6.0,81,-99.99,,,-99.99,tws,2013-01-29 20:25:00,
2013-01-29 15:30:00,39.6,34.8,30.07,NW,315,5.0,5.0,82,-99.99,,,-99.99,tws,2013-01-29 20:30:00,
2013-01-29 15:36:00,40.2,35.2,30.07,NNE,22,2.6,2.6,82,-99.99,,,-99.99,tws,2013-01-29 20:36:00,
2013-01-29 15:41:00,40.2,35.2,30.05,NNE,22,0.5,0.5,82,-99.99,,,-99.99,tws,2013-01-29 20:41:00,
2013-01-29 15:46:00,40.9,35.5,30.06,NE,45,0.0,0.0,80,-99.99,,,-99.99,tws,2013-01-29 20:46:00,
2013-01-29 15:51:00,40.7,34.8,30.05,NE,45,0.0,0.0,79,-99.99,,,-99.99,tws,2013-01-29 20:51:00,
2013-01-29 15:56:00,42.3,35.9,30.06,NE,45,0.0,0.0,78,-99.99,,,-99.99,tws,2013-01-29 20:56:00,
2013-01-29 16:01:00,41.6,35.5,30.07,NW,315,0.0,0.0,78,-99.99,,,-99.99,tws,2013-01-29 21:01:00,
2013-01-29 16:06:00,40.2,34.9,30.07,West,270,0.0,0.0,80,-99.99,,,-99.99,tws,2013-01-29 21:06:00,
2013-01-29 16:11:00,40.8,35.5,30.08,WSW,247,0.0,0.0,81,-99.99,,,-99.99,tws,2013-01-29 21:11:00,
2013-01-29 16:16:00,41.2,35.7,30.07,SE,135,0.0,0.0,80,-99.99,,,-99.99,tws,2013-01-29 21:16:00,
2013-01-29 16:21:00,40.1,35.1,30.07,South,180,0.0,0.0,81,-99.99,,,-99.99,tws,2013-01-29 21:21:00,
2013-01-29 16:26:00,40.3,35.1,30.08,SW,225,2.3,2.3,81,-99.99,,,-99.99,tws,2013-01-29 21:26:00,
2013-01-29 16:31:00,40.8,35.4,30.08,SW,225,0.0,0.0,81,-99.99,,,-99.99,tws,2013-01-29 21:31:00,
2013-01-29 16:36:00,39.9,35.1,30.07,SE,135,0.0,0.0,82,-99.99,,,-99.99,tws,2013-01-29 21:36:00,
2013-01-29 16:41:00,40.0,35.5,30.07,SSE,157,3.1,3.1,83,-99.99,,,-99.99,tws,2013-01-29 21:41:00,
2013-01-29 16:46:00,39.2,35.4,30.07,SE,135,4.9,4.9,85,-99.99,,,-99.99,tws,2013-01-29 21:46:00,
2013-01-29 16:51:00,39.1,35.3,30.07,SE,135,6.9,6.9,85,-99.99,,,-99.99,tws,2013-01-29 21:51:00,
2013-01-29 16:56:00,39.0,35.5,30.07,SSE,157,4.7,4.7,87,-99.99,,,-99.99,tws,2013-01-29 21:56:00,
2013-01-29 17:01:00,38.3,35.3,30.07,SSW,202,5.4,5.4,88,-99.99,,,-99.99,tws,2013-01-29 22:01:00,
2013-01-29 17:06:00,37.9,35.2,30.06,South,180,7.4,7.4,89,-99.99,,,-99.99,tws,2013-01-29 22:06:00,
2013-01-29 17:11:00,37.9,35.5,30.06,SSE,157,9.7,9.7,91,-99.99,,,-99.99,tws,2013-01-29 22:11:00,
2013-01-29 17:16:00,37.8,35.6,30.07,SSW,202,7.5,7.5,91,-99.99,,,-99.99,tws,2013-01-29 22:16:00,
2013-01-29 17:21:00,37.5,35.7,30.07,South,180,10.1,10.1,92,-99.99,,,-99.99,tws,2013-01-29 22:21:00,
2013-01-29 17:26:00,37.5,35.9,30.05,South,180,16.2,16.2,93,-99.99,,,-99.99,tws,2013-01-29 22:26:00,
2013-01-29 17:32:00,37.7,36.0,30.06,South,180,14.5,14.5,93,-99.99,,,-99.99,tws,2013-01-29 22:32:00,
2013-01-29 17:37:00,37.7,35.6,30.06,South,180,13.0,13.0,92,-99.99,,,-99.99,tws,2013-01-29 22:37:00,
2013-01-29 17:42:00,37.7,36.2,30.06,South,180,6.6,6.6,94,-99.99,,,-99.99,tws,2013-01-29 22:42:00,
2013-01-29 17:47:00,37.4,35.9,30.07,South,180,10.3,10.3,94,-99.99,,,-99.99,tws,2013-01-29 22:47:00,
2013-01-29 17:52:00,37.3,35.8,30.06,SSE,157,13.8,13.8,94,-99.99,,,-99.99,tws,2013-01-29 22:52:00,
2013-01-29 17:57:00,37.3,35.8,30.05,SSE,157,11.1,11.1,94,-99.99,,,-99.99,tws,2013-01-29 22:57:00,
2013-01-29 18:02:00,37.1,35.5,30.07,South,180,9.5,9.5,94,-99.99,,,-99.99,tws,2013-01-29 23:02:00,
2013-01-29 18:07:00,36.9,35.4,30.07,SSE,157,19.2,19.2,94,-99.99,,,-99.99,tws,2013-01-29 23:07:00,
2013-01-29 18:12:00,37.0,35.6,30.06,SW,225,14.7,14.7,94,-99.99,,,-99.99,tws,2013-01-29 23:12:00,
2013-01-29 18:17:00,36.7,35.3,30.05,South,180,19.6,19.6,94,-99.99,,,-99.99,tws,2013-01-29 23:17:00,
2013-01-29 18:22:00,36.7,35.4,30.05,SSE,157,15.2,15.2,94,-99.99,,,-99.99,tws,2013-01-29 23:22:00,
2013-01-29 18:28:00,36.9,35.7,30.07,South,180,10.2,10.2,95,-99.99,,,-99.99,tws,2013-01-29 23:28:00,
2013-01-29 18:33:00,36.7,35.6,30.07,SW,225,8.4,8.4,95,-99.99,,,-99.99,tws,2013-01-29 23:33:00,
2013-01-29 18:38:00,36.7,35.6,30.07,SSW,202,9.2,9.2,95,-99.99,,,-99.99,tws,2013-01-29 23:38:00,
2013-01-29 18:43:00,36.5,35.6,30.07,SSW,202,9.7,9.7,96,-99.99,,,-99.99,tws,2013-01-29 23:43:00,
2013-01-29 18:48:00,36.4,35.5,30.07,SW,225,9.7,9.7,96,-99.99,,,-99.99,tws,2013-01-29 23:48:00,
2013-01-29 18:53:00,36.4,35.5,30.07,South,180,8.6,8.6,96,-99.99,,,-99.99,tws,2013-01-29 23:53:00,
2013-01-29 18:59:00,36.5,35.6,30.07,SW,225,8.4,8.4,96,-99.99,,,-99.99,tws,2013-01-29 23:59:00,
2013-01-29 19:05:00,36.5,35.6,30.08,SSE,157,6.1,6.1,96,-99.99,,,-99.99,tws,2013-01-30 00:05:00,
2013-01-29 19:10:00,36.5,35.7,30.08,SSE,157,13.2,13.2,96,-99.99,,,-99.99,tws,2013-01-30 00:10:00,
2013-01-29 19:15:00,36.4,35.5,30.08,SSE,157,8.8,8.8,96,-99.99,,,-99.99,tws,2013-01-30 00:15:00,
2013-01-29 19:20:00,36.6,35.8,30.09,South,180,11.5,11.5,96,-99.99,,,-99.99,tws,2013-01-30 00:20:00,
2013-01-29 19:26:00,36.7,35.9,30.08,ESE,112,10.9,10.9,96,-99.99,,,-99.99,tws,2013-01-30 00:26:00,
2013-01-29 19:32:00,36.5,35.5,30.08,SSE,157,13.3,13.3,96,-99.99,,,-99.99,tws,2013-01-30 00:32:00,
2013-01-29 19:37:00,36.5,35.7,30.08,SSE,157,10.0,10.0,96,-99.99,,,-99.99,tws,2013-01-30 00:37:00,
2013-01-29 19:42:00,36.5,35.7,30.08,SE,135,10.1,10.1,96,-99.99,,,-99.99,tws,2013-01-30 00:42:00,
2013-01-29 19:47:00,36.4,35.4,30.08,SE,135,13.1,13.1,96,-99.99,,,-99.99,tws,2013-01-30 00:47:00,
2013-01-29 19:52:00,36.5,35.7,30.08,SSE,157,15.4,15.4,96,-99.99,,,-99.99,tws,2013-01-30 00:52:00,
2013-01-29 19:57:00,36.3,35.5,30.08,SE,135,14.1,14.1,96,-99.99,,,-99.99,tws,2013-01-30 00:57:00,
2013-01-29 20:02:00,36.3,35.6,30.08,ESE,112,13.3,13.3,97,-99.99,,,-99.99,tws,2013-01-30 01:02:00,
2013-01-29 20:07:00,36.2,35.6,30.07,SSE,157,10.0,10.0,97,-99.99,,,-99.99,tws,2013-01-30 01:07:00,
2013-01-29 20:12:00,36.0,35.5,30.07,ESE,112,14.0,14.0,98,-99.99,,,-99.99,tws,2013-01-30 01:12:00,
2013-01-29 20:17:00,36.2,35.8,30.07,SE,135,14.3,14.3,98,-99.99,,,-99.99,tws,2013-01-30 01:17:00,
2013-01-29 20:22:00,36.2,35.8,30.08,ESE,112,11.1,11.1,98,-99.99,,,-99.99,tws,2013-01-30 01:22:00,
2013-01-29 20:27:00,36.3,35.7,30.09,SSE,157,9.3,9.3,97,-99.99,,,-99.99,tws,2013-01-30 01:27:00,
2013-01-29 20:32:00,36.0,35.7,30.08,ESE,112,11.0,11.0,98,-99.99,,,-99.99,tws,2013-01-30 01:32:00,
2013-01-29 20:37:00,35.8,35.6,30.07,SE,135,12.6,12.6,99,-99.99,,,-99.99,tws,2013-01-30 01:37:00,
2013-01-29 20:42:00,35.8,35.5,30.07,SE,135,16.0,16.0,98,-99.99,,,-99.99,tws,2013-01-30 01:42:00,
2013-01-29 20:47:00,36.0,35.8,30.08,SE,135,12.5,12.5,99,-99.99,,,-99.99,tws,2013-01-30 01:47:00,
2013-01-29 20:52:00,35.8,35.7,30.07,SSE,157,13.3,13.3,99,-99.99,,,-99.99,tws,2013-01-30 01:52:00,
2013-01-29 20:57:00,36.2,35.9,30.08,SSW,202,12.3,12.3,99,-99.99,,,-99.99,tws,2013-01-30 01:57:00,
2013-01-29 21:02:00,36.2,36.0,30.08,SSE,157,6.8,6.8,99,-99.99,,,-99.99,tws,2013-01-30 02:02:00,
2013-01-29 21:07:00,36.3,36.1,30.08,SE,135,14.2,14.2,99,-99.99,,,-99.99,tws,2013-01-30 02:07:00,
2013-01-29 21:12:00,36.1,35.9,30.09,South,180,14.3,14.3,99,-99.99,,,-99.99,tws,2013-01-30 02:12:00,
2013-01-29 21:17:00,36.2,36.0,30.08,SE,135,13.1,13.1,99,-99.99,,,-99.99,tws,2013-01-30 02:17:00,
2013-01-29 21:22:00,36.2,36.0,30.07,South,180,11.5,11.5,99,-99.99,,,-99.99,tws,2013-01-30 02:22:00,
2013-01-29 21:27:00,36.3,36.1,30.08,SSE,157,6.0,6.0,99,-99.99,,,-99.99,tws,2013-01-30 02:27:00,
2013-01-29 21:32:00,36.3,36.1,30.07,SSE,157,10.3,10.3,99,-99.99,,,-99.99,tws,2013-01-30 02:32:00,
2013-01-29 21:37:00,36.2,36.0,30.07,South,180,13.5,13.5,99,-99.99,,,-99.99,tws,2013-01-30 02:37:00,
2013-01-29 21:42:00,36.2,36.0,30.07,South,180,10.9,10.9,99,-99.99,,,-99.99,tws,2013-01-30 02:42:00,
2013-01-29 21:47:00,36.1,35.8,30.08,South,180,10.7,10.7,99,-99.99,,,-99.99,tws,2013-01-30 02:47:00,
2013-01-29 21:52:00,36.0,35.8,30.07,SSW,202,13.4,13.4,99,-99.99,,,-99.99,tws,2013-01-30 02:52:00,
2013-01-29 21:57:00,36.1,35.9,30.07,South,180,8.2,8.2,99,-99.99,,,-99.99,tws,2013-01-30 02:57:00,
2013-01-29 22:02:00,36.2,36.0,30.08,South,180,6.5,6.5,99,-99.99,,,-99.99,tws,2013-01-30 03:02:00,
2013-01-29 22:07:00,36.0,35.8,30.08,South,180,5.3,5.3,99,-99.99,,,-99.99,tws,2013-01-30 03:07:00,
2013-01-29 22:12:00,36.2,35.6,30.07,South,180,9.6,9.6,97,-99.99,,,-99.99,tws,2013-01-30 03:12:00,
2013-01-29 22:17:00,36.1,35.9,30.07,SSE,157,9.8,9.8,99,-99.99,,,-99.99,tws,2013-01-30 03:17:00,
2013-01-29 22:22:00,36.1,35.9,30.07,SSW,202,9.8,9.8,99,-99.99,,,-99.99,tws,2013-01-30 03:22:00,
2013-01-29 22:27:00,36.0,35.5,30.07,SSE,157,12.9,12.9,98,-99.99,,,-99.99,tws,2013-01-30 03:27:00,
2013-01-29 22:32:00,35.8,35.7,30.07,SSE,157,11.5,11.5,99,-99.99,,,-99.99,tws,2013-01-30 03:32:00,
2013-01-29 22:37:00,36.0,35.9,30.07,SSE,157,13.7,13.7,99,-99.99,,,-99.99,tws,2013-01-30 03:37:00,
2013-01-29 22:42:00,36.1,36.0,30.07,SSE,157,11.2,11.2,99,-99.99,,,-99.99,tws,2013-01-30 03:42:00,
2013-01-29 22:47:00,36.0,35.8,30.07,SSE,157,7.6,7.6,99,-99.99,,,-99.99,tws,2013-01-30 03:47:00,
2013-01-29 22:52:00,36.2,36.0,30.07,SSE,157,11.2,11.2,99,-99.99,,,-99.99,tws,2013-01-30 03:52:00,
2013-01-29 22:57:00,36.2,36.0,30.07,South,180,9.4,9.4,99,-99.99,,,-99.99,tws,2013-01-30 03:57:00,
2013-01-29 23:02:00,36.2,36.0,30.07,SSE,157,8.4,8.4,99,-99.99,,,-99.99,tws,2013-01-30 04:02:00,
2013-01-29 23:07:00,36.0,35.7,30.07,South,180,9.4,9.4,99,-99.99,,,-99.99,tws,2013-01-30 04:07:00,
2013-01-29 23:12:00,36.0,35.4,30.07,South,180,12.7,12.7,97,-99.99,,,-99.99,tws,2013-01-30 04:12:00,
2013-01-29 23:17:00,35.8,35.6,30.07,SSE,157,14.6,14.6,99,-99.99,,,-99.99,tws,2013-01-30 04:17:00,
2013-01-29 23:22:00,36.0,35.8,30.06,SSE,157,11.7,11.7,99,-99.99,,,-99.99,tws,2013-01-30 04:22:00,
2013-01-29 23:27:00,35.7,35.6,30.06,SSE,157,12.2,12.2,99,-99.99,,,-99.99,tws,2013-01-30 04:27:00,
2013-01-29 23:32:00,36.1,35.9,30.06,SSE,157,14.5,14.5,99,-99.99,,,-99.99,tws,2013-01-30 04:32:00,
2013-01-29 23:37:00,36.0,35.8,30.07,South,180,11.7,11.7,99,-99.99,,,-99.99,tws,2013-01-30 04:37:00,
2013-01-29 23:42:00,36.1,36.0,30.06,SSE,157,12.5,12.5,99,-99.99,,,-99.99,tws,2013-01-30 04:42:00,
2013-01-29 23:47:00,36.3,36.2,30.05,SSE,157,10.4,10.4,99,-99.99,,,-99.99,tws,2013-01-30 04:47:00,
2013-01-29 23:52:00,36.4,36.3,30.05,SSE,157,12.9,12.9,99,-99.99,,,-99.99,tws,2013-01-30 04:52:00,
2013-01-29 23:57:00,36.3,36.1,30.05,South,180,14.3,14.3,99,-99.99,,,-99.99,tws,2013-01-30 04:57:00,